Airfield :
LOGIN :

Register | Disclaimer

   EN    FR    IT 

 










Legend :    VFR   Marginal VFR   IFR   Intensive IFR   Very Intensive IFR
Visi :
Ceiling :
>= 8 km
>= 3000ft
5 to 8 km
1000 to 3000 ft
1500m to 5 km
500 to 1000 ft
800 to 1500m
200 to 500 ft
< 800m
< 200 ft
Symbols :   Thunderstorms  Fog  Heavy snow  Heavy precipitations  Wind > 20 kt
SIGMETs :     Misc.  Thunderstorms  Icing  Turbulence  Mountain Waves  Volcanic Ashes







- Airport Elevation : 614 ft
- IATA code : CRL


EBCI - Charleroi

CURRENT METAR :
  • 170650Z 17003KT 120V220 CAVOK 17/13 Q1021 NOSIG

EXPIRED METARs :
  • 170620Z 17004KT 140V230 CAVOK 17/13 Q1021 NOSIG
  • 170550Z 15004KT 120V200 CAVOK 16/13 Q1021 NOSIG
  • 170520Z 17005KT CAVOK 14/12 Q1021 NOSIG
  • 170450Z 17004KT 150V210 CAVOK 14/12 Q1021 NOSIG
  • 170420Z 14004KT CAVOK 13/12 Q1021 NOSIG

TAF TAF EBCI
Valid from the 17 at 06:00 until the 18 at 12:00 UTC


170520Z 1706/1812 16004KT CAVOK
No reported NOTAMs for that airfield.



MET'MAP, your aeronautical weather chart ! - Copyright ORBIFLY December 2007 - Disclaimer

ORBIFLY MET'MAP TEAM :

Programming & Development : Alexandra Zaïnal
Concept & Development : Baudouin d'Aumeries
Co-Development & Prog : Marc-Olivier Méhu
Technical & hardware support : Manuel Goepfert

Contact : metmap@orbifly.com




SOURCES & CREDITS :

   NOAA